Time;durP1;ratioP1;P1;durP2;ratioP2;P2;SDS_P1;SDS_P2;PMS_P1;PMS_P2;Temp;Humidity;BMP_temperature;BMP_pressure;BME280_temperature;BME280_humidity;BME280_pressure;Samples;Min_cycle;Max_cycle;Signal;HPM_P1;HPM_P2
2023/08/01 00:01:08;;;;;;;25.08;8.23;;;;;;;;;;4951480;28;20032;-73
2023/08/01 00:03:35;;;;;;;21.10;8.30;;;;;;;;;;4951517;28;20053;-71
2023/08/01 00:06:00;;;;;;;15.55;8.10;;;;;;;;;;4951326;28;20039;-72
2023/08/01 00:08:26;;;;;;;15.98;7.63;;;;;;;;;;4951804;28;20504;-73
2023/08/01 00:10:52;;;;;;;14.52;8.50;;;;;;;;;;4951154;28;20035;-74
2023/08/01 00:13:19;;;;;;;22.80;8.15;;;;;;;;;;4951420;28;20498;-72
2023/08/01 00:15:45;;;;;;;18.85;8.13;;;;;;;;;;4951528;29;20037;-72
2023/08/01 00:18:11;;;;;;;21.65;8.93;;;;;;;;;;4951292;28;20085;-74
2023/08/01 00:20:37;;;;;;;21.35;8.93;;;;;;;;;;4951446;28;20035;-72
2023/08/01 00:23:03;;;;;;;15.40;8.77;;;;;;;;;;4951432;29;20058;-72
2023/08/01 00:25:29;;;;;;;36.20;11.40;;;;;;;;;;4954411;28;20043;-73
2023/08/01 00:27:55;;;;;;;29.67;10.95;;;;;;;;;;4958174;28;20038;-72
2023/08/01 00:30:21;;;;;;;28.55;10.45;;;;;;;;;;4961632;29;20039;-72
2023/08/01 00:32:47;;;;;;;31.63;10.90;;;;;;;;;;4960687;28;20074;-73
2023/08/01 00:35:13;;;;;;;31.88;10.93;;;;;;;;;;4955622;28;20477;-71
2023/08/01 00:37:39;;;;;;;27.13;12.07;;;;;;;;;;4953439;29;20478;-71
2023/08/01 00:40:05;;;;;;;31.52;10.40;;;;;;;;;;4953144;29;20077;-72
2023/08/01 00:42:31;;;;;;;21.80;10.02;;;;;;;;;;4954585;29;20035;-73
2023/08/01 00:44:57;;;;;;;26.90;9.98;;;;;;;;;;4952891;29;20046;-73
2023/08/01 00:47:24;;;;;;;15.82;10.63;;;;;;;;;;4953326;29;20462;-73
2023/08/01 00:49:50;;;;;;;20.90;9.95;;;;;;;;;;4954155;28;20035;-74
2023/08/01 00:52:16;;;;;;;24.67;10.20;;;;;;;;;;4954369;28;20379;-73
2023/08/01 00:54:42;;;;;;;24.15;9.27;;;;;;;;;;4954171;28;20032;-73
2023/08/01 00:57:08;;;;;;;14.25;7.30;;;;;;;;;;4954018;28;20098;-73
2023/08/01 00:59:34;;;;;;;17.90;8.00;;;;;;;;;;4954207;28;20066;-73
2023/08/01 01:02:01;;;;;;;15.25;8.23;;;;;;;;;;4953996;28;20047;-73
2023/08/01 01:04:27;;;;;;;20.38;8.30;;;;;;;;;;4954180;28;20066;-74
2023/08/01 01:07:03;;;;;;;25.70;7.82;;;;;;;;;;4953923;28;20498;-73
2023/08/01 01:09:31;;;;;;;20.52;8.60;;;;;;;;;;4953010;29;20032;-73
2023/08/01 01:11:58;;;;;;;19.83;8.60;;;;;;;;;;4953880;28;20106;-73
2023/08/01 01:14:25;;;;;;;17.90;8.45;;;;;;;;;;4954153;28;20042;-74
2023/08/01 01:16:51;;;;;;;26.45;10.70;;;;;;;;;;4955359;29;20038;-73
2023/08/01 01:19:17;;;;;;;23.08;11.13;;;;;;;;;;4953685;29;20062;-72
2023/08/01 01:22:05;;;;;;;24.85;8.85;;;;;;;;;;4953902;28;20039;-74
2023/08/01 01:24:31;;;;;;;21.92;9.77;;;;;;;;;;4953921;29;20137;-74
2023/08/01 01:26:59;;;;;;;17.55;10.35;;;;;;;;;;4953548;28;20097;-72
2023/08/01 01:29:26;;;;;;;23.83;10.82;;;;;;;;;;4953670;28;20035;-72
2023/08/01 01:31:53;;;;;;;23.55;10.68;;;;;;;;;;4952184;29;20051;-72
2023/08/01 01:34:18;;;;;;;17.10;10.82;;;;;;;;;;4953461;29;20490;-72
2023/08/01 01:36:44;;;;;;;17.17;10.20;;;;;;;;;;4953522;28;20063;-73
2023/08/01 01:39:11;;;;;;;18.77;10.00;;;;;;;;;;4952025;29;20521;-72
2023/08/01 01:41:36;;;;;;;24.33;9.80;;;;;;;;;;4953476;28;20035;-73
2023/08/01 01:44:02;;;;;;;17.48;8.90;;;;;;;;;;4953147;29;20138;-72
2023/08/01 01:46:28;;;;;;;27.90;13.90;;;;;;;;;;4953561;28;20059;-73
2023/08/01 01:48:54;;;;;;;16.65;9.30;;;;;;;;;;4951918;29;20043;-72
2023/08/01 01:51:21;;;;;;;15.35;8.73;;;;;;;;;;4953231;29;20043;-73
2023/08/01 01:53:47;;;;;;;17.38;9.48;;;;;;;;;;4953465;28;20035;-73
2023/08/01 01:56:13;;;;;;;14.15;8.20;;;;;;;;;;4952794;28;20035;-71
2023/08/01 01:58:39;;;;;;;13.77;8.13;;;;;;;;;;4951880;29;20490;-73
2023/08/01 02:01:05;;;;;;;19.05;8.10;;;;;;;;;;4951672;29;20039;-72
2023/08/01 02:03:31;;;;;;;13.30;8.90;;;;;;;;;;4953079;28;20050;-73
2023/08/01 02:05:58;;;;;;;15.05;7.63;;;;;;;;;;4953045;28;20043;-73
2023/08/01 02:08:24;;;;;;;11.15;7.03;;;;;;;;;;4951859;29;20094;-72
2023/08/01 02:10:50;;;;;;;11.27;7.90;;;;;;;;;;4953122;29;20035;-73
2023/08/01 02:13:17;;;;;;;15.00;6.72;;;;;;;;;;4953103;28;20074;-72
2023/08/01 02:15:42;;;;;;;16.83;8.45;;;;;;;;;;4951621;29;20039;-73
2023/08/01 02:18:09;;;;;;;12.82;7.40;;;;;;;;;;4951330;29;20409;-73
2023/08/01 02:20:35;;;;;;;9.32;6.75;;;;;;;;;;4951488;29;20415;-73
2023/08/01 02:23:01;;;;;;;11.95;6.55;;;;;;;;;;4951453;29;20575;-72
2023/08/01 02:25:27;;;;;;;13.98;6.93;;;;;;;;;;4935445;29;20039;-73
2023/08/01 02:27:53;;;;;;;12.27;7.75;;;;;;;;;;4951468;29;20035;-75
2023/08/01 02:30:19;;;;;;;12.02;8.23;;;;;;;;;;4952327;28;20045;-71
2023/08/01 02:32:45;;;;;;;11.02;8.55;;;;;;;;;;4951583;29;20078;-73
2023/08/01 02:35:12;;;;;;;14.15;8.88;;;;;;;;;;4953302;28;20065;-73
2023/08/01 02:37:38;;;;;;;24.73;9.32;;;;;;;;;;4952886;28;20039;-73
2023/08/01 02:40:07;;;;;;;13.90;8.93;;;;;;;;;;4952599;28;20126;-73
2023/08/01 02:42:34;;;;;;;17.63;10.05;;;;;;;;;;4952615;28;20035;-73
2023/08/01 02:45:00;;;;;;;18.42;10.07;;;;;;;;;;4950985;29;20070;-72
2023/08/01 02:47:28;;;;;;;12.00;9.13;;;;;;;;;;4952025;28;20097;-72
2023/08/01 02:49:54;;;;;;;20.95;9.95;;;;;;;;;;4952339;28;20482;-73
2023/08/01 02:52:20;;;;;;;20.15;9.77;;;;;;;;;;4952067;29;20578;-74
2023/08/01 02:54:46;;;;;;;15.20;8.98;;;;;;;;;;4950925;29;20117;-73
2023/08/01 02:57:12;;;;;;;15.77;9.13;;;;;;;;;;4951931;28;20142;-73
2023/08/01 02:59:38;;;;;;;20.13;10.25;;;;;;;;;;4952011;28;20075;-74
2023/08/01 03:02:04;;;;;;;19.33;10.43;;;;;;;;;;4951971;28;20570;-74
2023/08/01 03:04:30;;;;;;;26.23;11.23;;;;;;;;;;4952160;29;20270;-73
2023/08/01 03:06:56;;;;;;;22.67;10.50;;;;;;;;;;4951044;29;20431;-73
2023/08/01 03:09:23;;;;;;;20.42;10.35;;;;;;;;;;4952081;28;20494;-72
2023/08/01 03:11:49;;;;;;;17.30;10.50;;;;;;;;;;4952129;28;20138;-73
2023/08/01 03:14:16;;;;;;;19.60;10.23;;;;;;;;;;4951946;28;20049;-72
2023/08/01 03:16:42;;;;;;;22.75;11.55;;;;;;;;;;4952291;28;20042;-73
2023/08/01 03:19:09;;;;;;;18.58;10.23;;;;;;;;;;4951814;29;20047;-72
2023/08/01 03:21:35;;;;;;;15.80;9.57;;;;;;;;;;4951090;29;20391;-71
2023/08/01 03:24:02;;;;;;;9.70;8.35;;;;;;;;;;4952191;28;20039;-73
2023/08/01 03:26:29;;;;;;;18.33;8.80;;;;;;;;;;4953203;28;20146;-74
2023/08/01 03:28:55;;;;;;;16.95;8.90;;;;;;;;;;4953066;28;20102;-75
2023/08/01 03:31:24;;;;;;;15.02;8.20;;;;;;;;;;4953234;28;20138;-74
2023/08/01 03:33:50;;;;;;;18.48;8.65;;;;;;;;;;4957225;29;20043;-73
2023/08/01 03:36:17;;;;;;;20.33;10.48;;;;;;;;;;4958291;28;20051;-74
2023/08/01 03:38:45;;;;;;;12.27;10.35;;;;;;;;;;4955719;29;20126;-74
2023/08/01 03:41:11;;;;;;;16.90;9.77;;;;;;;;;;4952466;28;20035;-74
2023/08/01 03:43:37;;;;;;;22.23;10.57;;;;;;;;;;4951975;28;20041;-74
2023/08/01 03:46:03;;;;;;;21.63;10.00;;;;;;;;;;4950375;29;20035;-75
2023/08/01 03:48:29;;;;;;;18.75;10.13;;;;;;;;;;4952041;28;20075;-73
2023/08/01 03:50:55;;;;;;;19.08;9.52;;;;;;;;;;4951750;29;20490;-73
2023/08/01 03:53:21;;;;;;;16.88;9.98;;;;;;;;;;4951664;28;20059;-73
2023/08/01 03:55:51;;;;;;;20.80;9.65;;;;;;;;;;4951653;29;20102;-73
2023/08/01 03:58:17;;;;;;;22.73;10.70;;;;;;;;;;4951280;28;20407;-72
2023/08/01 04:00:42;;;;;;;20.63;9.30;;;;;;;;;;4953218;29;20027;-74
2023/08/01 04:03:09;;;;;;;24.90;9.02;;;;;;;;;;4954411;29;20042;-73
2023/08/01 04:05:35;;;;;;;21.25;9.10;;;;;;;;;;4955086;28;20047;-73
2023/08/01 04:08:01;;;;;;;13.80;7.95;;;;;;;;;;4955691;28;20035;-76
2023/08/01 04:10:27;;;;;;;23.70;8.13;;;;;;;;;;4956338;28;20528;-73
2023/08/01 04:12:53;;;;;;;19.20;8.70;;;;;;;;;;4955899;28;20151;-74
2023/08/01 04:15:19;;;;;;;14.00;8.45;;;;;;;;;;4953528;29;20035;-74
2023/08/01 04:17:45;;;;;;;22.83;8.32;;;;;;;;;;4970059;28;20043;-75
2023/08/01 04:20:12;;;;;;;17.27;8.25;;;;;;;;;;4954940;28;20031;-74
2023/08/01 04:22:38;;;;;;;19.38;8.32;;;;;;;;;;4955140;28;20081;-76
2023/08/01 04:25:04;;;;;;;12.95;8.32;;;;;;;;;;4954867;28;20510;-75
2023/08/01 04:27:33;;;;;;;22.70;9.07;;;;;;;;;;4954899;28;20121;-74
2023/08/01 04:30:00;;;;;;;21.73;8.73;;;;;;;;;;4953578;29;20035;-76
2023/08/01 04:32:27;;;;;;;15.90;9.20;;;;;;;;;;4954877;28;20051;-75
2023/08/01 04:34:53;;;;;;;15.70;8.23;;;;;;;;;;4954790;28;20042;-73
2023/08/01 04:37:23;;;;;;;9.57;8.52;;;;;;;;;;4953303;29;20047;-75
2023/08/01 04:39:49;;;;;;;13.80;9.27;;;;;;;;;;4953483;29;20035;-74
2023/08/01 04:42:15;;;;;;;16.52;9.82;;;;;;;;;;4954538;28;20134;-75
2023/08/01 04:44:41;;;;;;;15.10;7.68;;;;;;;;;;4953225;29;20042;-73
2023/08/01 04:47:07;;;;;;;14.02;8.77;;;;;;;;;;4954392;29;20039;-75
2023/08/01 04:49:33;;;;;;;12.65;8.00;;;;;;;;;;4954563;29;20035;-75
2023/08/01 04:52:00;;;;;;;15.05;8.27;;;;;;;;;;4953020;29;20047;-75
2023/08/01 04:54:26;;;;;;;10.50;6.90;;;;;;;;;;4954180;28;20094;-76
2023/08/01 04:56:52;;;;;;;10.07;7.55;;;;;;;;;;4954316;28;20426;-74
2023/08/01 04:59:18;;;;;;;13.60;7.60;;;;;;;;;;4953952;28;20452;-74
2023/08/01 05:01:44;;;;;;;12.07;7.07;;;;;;;;;;4954351;28;20097;-73
2023/08/01 05:04:11;;;;;;;8.38;6.18;;;;;;;;;;4954186;29;20046;-75
2023/08/01 05:06:37;;;;;;;12.50;6.90;;;;;;;;;;4954373;28;20050;-74
2023/08/01 05:09:03;;;;;;;13.05;7.07;;;;;;;;;;4954321;28;20042;-75
2023/08/01 05:11:29;;;;;;;12.27;7.80;;;;;;;;;;4953613;28;20043;-74
2023/08/01 05:13:55;;;;;;;8.65;7.03;;;;;;;;;;4954266;28;20066;-74
2023/08/01 05:16:21;;;;;;;10.82;6.60;;;;;;;;;;4953781;28;20078;-75
2023/08/01 05:18:47;;;;;;;10.52;6.50;;;;;;;;;;4954258;28;20572;-75
2023/08/01 05:21:13;;;;;;;13.80;6.70;;;;;;;;;;4953750;29;20183;-74
2023/08/01 05:23:39;;;;;;;11.23;6.80;;;;;;;;;;4953921;29;20425;-75
2023/08/01 05:26:05;;;;;;;19.20;7.20;;;;;;;;;;4953818;28;20027;-75
2023/08/01 05:28:31;;;;;;;7.60;6.03;;;;;;;;;;4954081;28;20050;-74
2023/08/01 05:30:57;;;;;;;7.82;5.47;;;;;;;;;;4952801;29;20035;-73
2023/08/01 05:33:23;;;;;;;9.95;5.45;;;;;;;;;;4954619;28;20526;-73
2023/08/01 05:35:50;;;;;;;10.88;5.75;;;;;;;;;;4953977;29;20043;-73
2023/08/01 05:38:16;;;;;;;14.02;6.28;;;;;;;;;;4954251;28;20074;-75
2023/08/01 05:40:42;;;;;;;12.10;5.65;;;;;;;;;;4952516;29;20039;-74
2023/08/01 05:43:08;;;;;;;13.45;5.68;;;;;;;;;;4952164;29;20101;-75
2023/08/01 05:45:35;;;;;;;6.10;5.07;;;;;;;;;;4936272;29;20498;-73
2023/08/01 05:48:01;;;;;;;7.20;4.90;;;;;;;;;;4953421;28;20041;-75
2023/08/01 05:50:27;;;;;;;7.20;4.82;;;;;;;;;;4935981;29;20043;-75
2023/08/01 05:52:53;;;;;;;5.30;4.50;;;;;;;;;;4951995;29;20106;-74
2023/08/01 05:55:20;;;;;;;7.35;4.60;;;;;;;;;;4952984;28;20035;-74
2023/08/01 05:57:48;;;;;;;4.95;4.45;;;;;;;;;;4953198;28;20058;-74
2023/08/01 06:00:15;;;;;;;7.72;4.82;;;;;;;;;;4953023;28;20034;-74
2023/08/01 06:02:41;;;;;;;6.43;4.30;;;;;;;;;;4953249;29;20054;-75
2023/08/01 06:05:08;;;;;;;7.15;4.78;;;;;;;;;;4951564;29;20050;-75
2023/08/01 06:07:34;;;;;;;4.63;4.22;;;;;;;;;;4953162;28;20565;-74
2023/08/01 06:10:00;;;;;;;5.35;4.07;;;;;;;;;;4953039;28;20031;-75
2023/08/01 06:12:26;;;;;;;6.38;4.22;;;;;;;;;;4952814;28;20058;-74
2023/08/01 06:14:52;;;;;;;10.50;3.80;;;;;;;;;;4951776;29;20037;-74
2023/08/01 06:17:18;;;;;;;7.05;4.03;;;;;;;;;;4952725;28;20039;-74
2023/08/01 06:19:44;;;;;;;3.85;3.33;;;;;;;;;;4953262;28;20042;-75
2023/08/01 06:22:10;;;;;;;3.30;3.00;;;;;;;;;;4951981;28;20043;-76
2023/08/01 06:24:36;;;;;;;3.20;2.90;;;;;;;;;;4952784;28;20035;-75
2023/08/01 06:27:03;;;;;;;3.10;2.90;;;;;;;;;;4952833;28;20046;-74
2023/08/01 06:29:29;;;;;;;3.10;2.80;;;;;;;;;;4953057;28;20039;-75
2023/08/01 06:31:55;;;;;;;7.38;3.22;;;;;;;;;;4954490;29;20043;-76
2023/08/01 06:34:21;;;;;;;3.28;2.72;;;;;;;;;;4954476;28;20073;-75
2023/08/01 06:36:48;;;;;;;3.60;3.25;;;;;;;;;;4964412;28;20172;-75
2023/08/01 06:39:14;;;;;;;5.05;2.95;;;;;;;;;;4961987;28;20035;-73
2023/08/01 06:41:40;;;;;;;3.40;3.10;;;;;;;;;;4953835;28;20661;-74
2023/08/01 06:44:06;;;;;;;3.47;3.17;;;;;;;;;;4954288;28;20098;-74
2023/08/01 06:46:32;;;;;;;3.30;3.00;;;;;;;;;;4954046;28;20027;-74
2023/08/01 06:48:58;;;;;;;4.85;3.17;;;;;;;;;;4954692;29;20054;-74
2023/08/01 06:51:23;;;;;;;5.60;2.90;;;;;;;;;;4954207;28;20039;-74
2023/08/01 06:53:50;;;;;;;3.63;3.33;;;;;;;;;;4952628;29;20047;-73
2023/08/01 06:56:16;;;;;;;3.75;3.40;;;;;;;;;;4953614;28;20420;-75
2023/08/01 06:58:42;;;;;;;3.72;3.42;;;;;;;;;;4952757;29;20514;-74
2023/08/01 07:01:08;;;;;;;7.47;4.00;;;;;;;;;;4951515;29;20071;-76
2023/08/01 07:03:34;;;;;;;3.88;3.35;;;;;;;;;;4952445;28;20035;-75
2023/08/01 07:06:00;;;;;;;7.03;3.88;;;;;;;;;;4952184;29;20153;-74
2023/08/01 07:08:25;;;;;;;3.78;3.50;;;;;;;;;;4952161;28;20528;-76
2023/08/01 07:10:51;;;;;;;6.88;4.65;;;;;;;;;;4952087;28;20038;-73
2023/08/01 07:13:19;;;;;;;4.88;4.47;;;;;;;;;;4952024;28;20051;-75
2023/08/01 07:15:45;;;;;;;4.90;4.50;;;;;;;;;;4952027;28;20502;-74
2023/08/01 07:18:11;;;;;;;4.57;4.22;;;;;;;;;;4950971;29;20422;-74
2023/08/01 07:20:38;;;;;;;5.45;4.13;;;;;;;;;;4952215;29;20035;-74
2023/08/01 07:23:04;;;;;;;4.80;4.45;;;;;;;;;;4952142;29;20038;-75
2023/08/01 07:25:30;;;;;;;5.40;4.90;;;;;;;;;;4951924;28;20039;-74
2023/08/01 07:27:56;;;;;;;5.20;4.78;;;;;;;;;;4950766;29;20039;-75
2023/08/01 07:30:22;;;;;;;5.10;4.60;;;;;;;;;;4951766;28;20057;-74
2023/08/01 07:32:48;;;;;;;5.70;4.43;;;;;;;;;;4951888;28;20502;-74
2023/08/01 07:35:14;;;;;;;5.15;4.22;;;;;;;;;;4955848;28;20222;-74
2023/08/01 07:37:40;;;;;;;4.35;3.80;;;;;;;;;;4955798;29;20051;-74
2023/08/01 07:40:07;;;;;;;6.40;3.20;;;;;;;;;;4955852;29;20130;-74
2023/08/01 07:42:39;;;;;;;6.22;3.40;;;;;;;;;;4955749;28;20038;-75
2023/08/01 07:45:07;;;;;;;3.53;3.08;;;;;;;;;;4956340;28;20039;-74
2023/08/01 07:47:33;;;;;;;3.33;3.10;;;;;;;;;;4954305;29;20046;-74
2023/08/01 07:49:59;;;;;;;3.90;3.10;;;;;;;;;;4955556;28;20454;-74
2023/08/01 07:52:25;;;;;;;4.07;3.58;;;;;;;;;;4955617;29;20138;-74
2023/08/01 07:54:53;;;;;;;3.97;3.67;;;;;;;;;;4956365;29;20066;-75
2023/08/01 07:57:19;;;;;;;2.90;2.80;;;;;;;;;;4955653;29;20055;-75
2023/08/01 07:59:45;;;;;;;3.13;2.92;;;;;;;;;;4955719;29;20149;-74
2023/08/01 08:02:12;;;;;;;4.00;3.00;;;;;;;;;;4957586;28;20046;-74
2023/08/01 08:04:38;;;;;;;3.45;3.25;;;;;;;;;;4955440;29;20074;-74
2023/08/01 08:07:04;;;;;;;8.82;3.97;;;;;;;;;;4956836;28;20035;-74
2023/08/01 08:09:30;;;;;;;3.17;3.00;;;;;;;;;;4956769;28;20027;-73
2023/08/01 08:11:59;;;;;;;3.97;2.90;;;;;;;;;;4956480;29;20518;-73
2023/08/01 08:14:25;;;;;;;3.30;3.08;;;;;;;;;;4956599;28;20391;-75
2023/08/01 08:16:51;;;;;;;3.30;2.90;;;;;;;;;;4954057;29;20486;-74
2023/08/01 08:19:17;;;;;;;3.50;3.20;;;;;;;;;;4954306;29;20117;-75
2023/08/01 08:21:43;;;;;;;6.60;3.55;;;;;;;;;;4955083;29;20089;-74
2023/08/01 08:24:09;;;;;;;3.28;3.08;;;;;;;;;;4954239;29;20502;-75
2023/08/01 08:26:37;;;;;;;3.47;3.17;;;;;;;;;;4953541;29;20035;-75
2023/08/01 08:29:07;;;;;;;7.72;2.92;;;;;;;;;;4955179;28;20510;-75
2023/08/01 08:31:33;;;;;;;4.53;2.80;;;;;;;;;;4954530;28;20129;-75
2023/08/01 08:33:59;;;;;;;3.28;2.90;;;;;;;;;;4954982;28;20122;-74
2023/08/01 08:36:26;;;;;;;6.75;2.97;;;;;;;;;;4954528;28;20402;-73
2023/08/01 08:38:52;;;;;;;3.85;3.30;;;;;;;;;;4954843;28;20043;-76
2023/08/01 08:41:20;;;;;;;4.20;3.10;;;;;;;;;;4954640;28;20031;-76
2023/08/01 08:43:46;;;;;;;2.97;2.78;;;;;;;;;;4954786;28;20062;-74
2023/08/01 08:46:12;;;;;;;4.70;2.72;;;;;;;;;;4952614;28;20039;-75
2023/08/01 08:48:38;;;;;;;3.30;3.10;;;;;;;;;;4954549;29;20047;-74
2023/08/01 08:51:04;;;;;;;3.40;3.03;;;;;;;;;;4953181;29;20389;-75
2023/08/01 08:53:30;;;;;;;2.97;2.80;;;;;;;;;;4953007;29;20065;-75
2023/08/01 08:55:56;;;;;;;3.17;2.90;;;;;;;;;;4953222;29;20502;-76
2023/08/01 08:58:23;;;;;;;2.90;2.70;;;;;;;;;;4952999;29;20085;-74
2023/08/01 09:00:49;;;;;;;4.18;2.63;;;;;;;;;;4954263;28;20061;-74
2023/08/01 09:03:15;;;;;;;3.60;3.30;;;;;;;;;;4954281;28;20046;-75
2023/08/01 09:05:44;;;;;;;3.40;3.05;;;;;;;;;;4953980;28;20209;-75
2023/08/01 09:08:16;;;;;;;3.17;2.97;;;;;;;;;;4954413;28;20039;-75
2023/08/01 09:10:42;;;;;;;6.60;3.13;;;;;;;;;;4952763;29;20533;-75
2023/08/01 09:13:09;;;;;;;3.30;3.10;;;;;;;;;;4954111;28;20528;-77
2023/08/01 09:15:35;;;;;;;4.03;3.63;;;;;;;;;;4953870;29;20045;-76
2023/08/01 09:18:01;;;;;;;3.83;3.13;;;;;;;;;;4952782;29;20039;-75
2023/08/01 09:20:27;;;;;;;4.95;3.50;;;;;;;;;;4952671;29;20057;-74
2023/08/01 09:22:53;;;;;;;3.53;3.30;;;;;;;;;;4954075;28;20630;-75
2023/08/01 09:25:19;;;;;;;5.22;3.45;;;;;;;;;;4953852;28;20117;-74
2023/08/01 09:27:45;;;;;;;3.40;3.20;;;;;;;;;;4953982;28;20039;-74
2023/08/01 09:30:15;;;;;;;4.90;3.30;;;;;;;;;;4953924;29;20045;-75
2023/08/01 09:32:41;;;;;;;;;;;;;;;;;;4954153;29;20118;-74
2023/08/01 09:35:07;;;;;;;3.30;3.05;;;;;;;;;;4953017;29;20017;-75
2023/08/01 09:37:40;;;;;;;3.45;3.20;;;;;;;;;;4953110;28;20584;-75
2023/08/01 09:40:07;;;;;;;3.70;3.40;;;;;;;;;;4955847;28;20130;-74
2023/08/01 09:42:42;;;;;;;4.18;3.40;;;;;;;;;;4965002;28;20047;-74
2023/08/01 09:45:12;;;;;;;3.45;3.13;;;;;;;;;;4964845;29;20493;-74
2023/08/01 09:47:38;;;;;;;5.05;3.00;;;;;;;;;;4954213;29;20066;-73
2023/08/01 09:50:04;;;;;;;3.88;3.17;;;;;;;;;;4953527;28;20073;-75
2023/08/01 09:52:30;;;;;;;3.90;3.60;;;;;;;;;;4968043;28;20440;-77
2023/08/01 09:54:56;;;;;;;4.68;3.60;;;;;;;;;;4954528;29;20037;-75
2023/08/01 09:57:22;;;;;;;3.65;3.35;;;;;;;;;;4952701;28;20057;-75
2023/08/01 09:59:48;;;;;;;3.67;3.40;;;;;;;;;;4952095;29;20035;-75
2023/08/01 10:02:15;;;;;;;3.88;3.58;;;;;;;;;;4951994;29;20168;-75
2023/08/01 10:04:41;;;;;;;4.35;3.80;;;;;;;;;;4951615;29;20114;-74
2023/08/01 10:07:08;;;;;;;3.75;3.50;;;;;;;;;;4953023;28;20046;-75
2023/08/01 10:09:35;;;;;;;3.80;3.60;;;;;;;;;;4952930;28;20041;-74
2023/08/01 10:12:01;;;;;;;4.60;3.72;;;;;;;;;;4952962;28;20506;-75
2023/08/01 10:14:27;;;;;;;6.88;3.22;;;;;;;;;;4952985;29;20039;-75
2023/08/01 10:16:53;;;;;;;3.85;3.50;;;;;;;;;;4951596;29;20043;-75
2023/08/01 10:19:19;;;;;;;3.50;3.20;;;;;;;;;;4936148;29;20047;-75
2023/08/01 10:21:45;;;;;;;3.70;3.40;;;;;;;;;;4952499;28;20127;-74
2023/08/01 10:24:12;;;;;;;5.72;3.30;;;;;;;;;;4937406;29;20028;-76
2023/08/01 10:26:38;;;;;;;4.63;3.30;;;;;;;;;;4930846;29;20388;-76
2023/08/01 10:29:04;;;;;;;8.13;3.30;;;;;;;;;;4934115;29;20036;-77
2023/08/01 10:31:30;;;;;;;3.70;3.38;;;;;;;;;;4933391;29;20039;-76
2023/08/01 10:34:06;;;;;;;3.25;3.05;;;;;;;;;;4932184;29;20039;-76
2023/08/01 10:36:32;;;;;;;3.33;3.10;;;;;;;;;;4947950;29;20036;-76
2023/08/01 10:38:59;;;;;;;3.17;2.97;;;;;;;;;;4933345;29;20628;-75
2023/08/01 10:41:28;;;;;;;3.55;3.33;;;;;;;;;;4931977;29;20170;-72
2023/08/01 10:43:54;;;;;;;;;;;;;;;;;;4932637;29;20042;-75
2023/08/01 10:46:20;;;;;;;4.43;3.60;;;;;;;;;;4933496;29;19915;-77
2023/08/01 10:48:52;;;;;;;3.75;3.40;;;;;;;;;;4931956;29;20031;-74
2023/08/01 10:51:18;;;;;;;6.65;3.55;;;;;;;;;;4932976;29;20051;-74
2023/08/01 10:53:44;;;;;;;4.40;3.50;;;;;;;;;;4933165;29;20065;-76
2023/08/01 10:56:18;;;;;;;3.50;3.30;;;;;;;;;;4935227;29;20038;-75
2023/08/01 10:58:43;;;;;;;3.47;3.28;;;;;;;;;;4949266;29;20126;-75
2023/08/01 11:01:10;;;;;;;3.55;3.25;;;;;;;;;;4949593;29;20046;-75
2023/08/01 11:03:36;;;;;;;3.72;3.38;;;;;;;;;;4950738;29;20035;-74
2023/08/01 11:06:03;;;;;;;6.00;3.22;;;;;;;;;;4951993;28;20094;-74
2023/08/01 11:08:38;;;;;;;6.78;3.40;;;;;;;;;;4950554;28;20035;-75
2023/08/01 11:11:08;;;;;;;5.00;3.20;;;;;;;;;;4950908;29;20073;-75
2023/08/01 11:13:35;;;;;;;;;;;;;;;;;;4951332;29;20461;-75
2023/08/01 11:16:07;;;;;;;6.50;3.17;;;;;;;;;;4952101;28;19945;-75
2023/08/01 11:18:42;;;;;;;6.72;3.60;;;;;;;;;;4951255;29;20035;-76
2023/08/01 11:21:08;;;;;;;8.65;3.35;;;;;;;;;;4952829;28;20142;-75
2023/08/01 11:23:36;;;;;;;5.38;3.50;;;;;;;;;;4950727;29;20122;-75
2023/08/01 11:26:06;;;;;;;7.15;3.40;;;;;;;;;;4951881;28;20043;-75
2023/08/01 11:28:32;;;;;;;4.32;3.58;;;;;;;;;;4950639;29;20031;-76
2023/08/01 11:30:58;;;;;;;6.65;3.55;;;;;;;;;;4951768;28;20402;-75
2023/08/01 11:33:24;;;;;;;4.65;3.50;;;;;;;;;;4951842;28;20537;-75
2023/08/01 11:35:59;;;;;;;5.93;3.60;;;;;;;;;;4952635;28;20042;-76
2023/08/01 11:38:26;;;;;;;3.80;3.50;;;;;;;;;;4951869;28;20062;-74
2023/08/01 11:40:51;;;;;;;8.80;3.38;;;;;;;;;;4951716;28;20627;-76
2023/08/01 11:43:18;;;;;;;4.20;3.35;;;;;;;;;;4950755;29;20039;-76
2023/08/01 11:45:56;;;;;;;3.42;3.20;;;;;;;;;;4951579;28;20035;-74
2023/08/01 11:48:23;;;;;;;3.35;3.13;;;;;;;;;;4950736;29;20443;-75
2023/08/01 11:50:49;;;;;;;3.20;2.97;;;;;;;;;;4951306;29;20490;-75
2023/08/01 11:53:21;;;;;;;4.43;2.85;;;;;;;;;;4951984;29;20090;-76
2023/08/01 11:55:48;;;;;;;3.17;2.88;;;;;;;;;;4951205;28;20031;-74
2023/08/01 11:58:14;;;;;;;3.28;2.85;;;;;;;;;;4952176;28;20087;-75
2023/08/01 12:00:40;;;;;;;3.55;3.13;;;;;;;;;;4951845;28;20031;-75
2023/08/01 12:03:07;;;;;;;3.30;2.95;;;;;;;;;;4951671;28;20277;-75
2023/08/01 12:05:33;;;;;;;3.45;3.15;;;;;;;;;;4949936;29;20046;-77
2023/08/01 12:08:12;;;;;;;3.17;2.97;;;;;;;;;;4951454;28;20043;-75
2023/08/01 12:10:38;;;;;;;3.88;3.20;;;;;;;;;;4950372;29;20046;-75
2023/08/01 12:13:04;;;;;;;8.52;3.20;;;;;;;;;;4951553;28;20046;-75
2023/08/01 12:15:30;;;;;;;3.53;3.22;;;;;;;;;;4951592;28;20086;-75
2023/08/01 12:17:56;;;;;;;4.95;3.60;;;;;;;;;;4951851;28;20042;-75
2023/08/01 12:20:22;;;;;;;4.93;3.53;;;;;;;;;;4952845;28;20522;-75
2023/08/01 12:22:48;;;;;;;3.55;3.30;;;;;;;;;;4953744;29;20050;-75
2023/08/01 12:25:14;;;;;;;9.80;3.50;;;;;;;;;;4955203;28;20035;-76
2023/08/01 12:27:40;;;;;;;3.70;3.40;;;;;;;;;;4954731;28;20031;-76
2023/08/01 12:30:07;;;;;;;3.05;2.78;;;;;;;;;;4955144;28;20043;-75
2023/08/01 12:32:35;;;;;;;4.18;3.78;;;;;;;;;;4954604;28;20046;-75
2023/08/01 12:35:01;;;;;;;7.00;3.40;;;;;;;;;;4953860;29;20071;-75
2023/08/01 12:37:29;;;;;;;5.28;3.20;;;;;;;;;;4955478;28;20075;-75
2023/08/01 12:39:55;;;;;;;4.38;3.10;;;;;;;;;;4954655;29;20121;-75
2023/08/01 12:42:21;;;;;;;3.30;3.03;;;;;;;;;;4955074;28;20031;-75
2023/08/01 12:44:47;;;;;;;4.07;3.70;;;;;;;;;;4954928;29;20046;-76
2023/08/01 12:47:13;;;;;;;3.60;2.90;;;;;;;;;;4957236;28;20403;-74
2023/08/01 12:49:39;;;;;;;3.78;3.28;;;;;;;;;;4962062;28;20042;-76
2023/08/01 12:52:05;;;;;;;7.82;3.13;;;;;;;;;;4968567;28;20043;-75
2023/08/01 12:54:31;;;;;;;3.85;3.53;;;;;;;;;;4962383;28;20043;-75
2023/08/01 12:56:57;;;;;;;4.63;3.22;;;;;;;;;;4952755;29;20455;-76
2023/08/01 12:59:23;;;;;;;4.03;3.72;;;;;;;;;;4954599;28;20130;-75
2023/08/01 13:01:49;;;;;;;12.13;3.50;;;;;;;;;;4954043;29;20035;-75
2023/08/01 13:04:15;;;;;;;3.40;3.10;;;;;;;;;;4954404;28;20077;-76
2023/08/01 13:06:41;;;;;;;3.75;3.20;;;;;;;;;;4954082;28;20063;-75
2023/08/01 13:09:07;;;;;;;3.85;3.55;;;;;;;;;;4953964;28;20053;-76
2023/08/01 13:11:33;;;;;;;3.72;3.42;;;;;;;;;;4952877;29;20031;-75
2023/08/01 13:13:59;;;;;;;4.18;3.22;;;;;;;;;;4954044;28;20043;-75
2023/08/01 13:16:25;;;;;;;4.18;3.30;;;;;;;;;;4953324;29;20038;-75
2023/08/01 13:18:51;;;;;;;3.55;3.25;;;;;;;;;;4952481;29;20043;-76
2023/08/01 13:21:17;;;;;;;5.60;3.08;;;;;;;;;;4954058;29;20395;-75
2023/08/01 13:23:43;;;;;;;4.10;3.72;;;;;;;;;;4953607;28;20387;-76
2023/08/01 13:26:09;;;;;;;3.75;3.38;;;;;;;;;;4953852;28;20042;-75
2023/08/01 13:28:35;;;;;;;4.95;3.38;;;;;;;;;;4953713;29;20125;-75
2023/08/01 13:31:01;;;;;;;5.22;3.08;;;;;;;;;;4953383;28;20039;-76
2023/08/01 13:33:27;;;;;;;8.30;3.40;;;;;;;;;;4953861;28;20421;-76
2023/08/01 13:35:53;;;;;;;4.53;3.53;;;;;;;;;;4953413;29;20038;-76
2023/08/01 13:38:19;;;;;;;8.90;3.42;;;;;;;;;;4954571;29;20051;-74
2023/08/01 13:40:45;;;;;;;8.60;2.92;;;;;;;;;;4953294;29;20035;-77
2023/08/01 13:43:11;;;;;;;4.43;3.38;;;;;;;;;;4953857;28;20039;-75
2023/08/01 13:45:37;;;;;;;4.97;3.20;;;;;;;;;;4936513;29;20027;-76
2023/08/01 13:48:03;;;;;;;7.57;3.50;;;;;;;;;;4953367;28;20142;-75
2023/08/01 13:50:30;;;;;;;4.55;4.13;;;;;;;;;;4952336;29;20037;-75
2023/08/01 13:52:56;;;;;;;8.40;3.03;;;;;;;;;;4953115;28;20073;-75
2023/08/01 13:55:22;;;;;;;7.22;3.38;;;;;;;;;;4951909;29;20495;-74
2023/08/01 13:57:48;;;;;;;3.22;3.00;;;;;;;;;;4952874;29;20055;-76
2023/08/01 14:00:14;;;;;;;3.90;3.20;;;;;;;;;;4953496;28;20050;-74
2023/08/01 14:02:41;;;;;;;3.38;3.10;;;;;;;;;;4953048;28;20510;-76
2023/08/01 14:05:08;;;;;;;4.00;3.40;;;;;;;;;;4953258;28;20037;-75
2023/08/01 14:07:37;;;;;;;5.18;3.90;;;;;;;;;;4951855;29;20061;-76
2023/08/01 14:10:03;;;;;;;5.32;3.60;;;;;;;;;;4953136;28;20066;-75
2023/08/01 14:12:29;;;;;;;3.92;3.63;;;;;;;;;;4952842;28;20137;-77
2023/08/01 14:14:55;;;;;;;4.68;3.50;;;;;;;;;;4953304;28;20130;-76
2023/08/01 14:17:21;;;;;;;4.20;3.80;;;;;;;;;;4953084;28;20058;-75
2023/08/01 14:19:47;;;;;;;5.55;3.50;;;;;;;;;;4953027;28;20089;-76
2023/08/01 14:22:13;;;;;;;5.93;4.10;;;;;;;;;;4953018;28;20110;-74
2023/08/01 14:24:39;;;;;;;4.00;3.58;;;;;;;;;;4952815;28;20419;-76
2023/08/01 14:27:06;;;;;;;4.00;3.70;;;;;;;;;;4952570;29;20043;-76
2023/08/01 14:29:32;;;;;;;4.40;4.10;;;;;;;;;;4952884;28;20549;-76
2023/08/01 14:31:57;;;;;;;7.90;3.38;;;;;;;;;;4952493;28;20085;-74
2023/08/01 14:34:24;;;;;;;3.95;3.38;;;;;;;;;;4952840;28;20050;-75